Time;durP1;ratioP1;P1;durP2;ratioP2;P2;SDS_P1;SDS_P2;PMS_P1;PMS_P2;Temp;Humidity;BMP_temperature;BMP_pressure;BME280_temperature;BME280_humidity;BME280_pressure;Samples;Min_cycle;Max_cycle;Signal;HPM_P1;HPM_P2
2022/06/27 00:00:34;;;;;;;6.80;6.03;;;;;;;23.60;60.63;100744.22;5024871;28;20069;-74
2022/06/27 00:03:01;;;;;;;6.43;5.82;;;;;;;23.41;61.46;100748.00;5023704;28;20041;-74
2022/06/27 00:05:27;;;;;;;7.88;6.30;;;;;;;23.35;61.58;100747.81;5025294;28;20103;-74
2022/06/27 00:07:54;;;;;;;7.55;6.13;;;;;;;23.34;62.11;100754.13;5028244;28;20096;-74
2022/06/27 00:10:20;;;;;;;12.18;6.10;;;;;;;23.00;63.15;100748.78;5032395;28;20092;-74
2022/06/27 00:12:48;;;;;;;9.20;6.38;;;;;;;23.36;61.92;100747.63;5033276;28;20040;-74
2022/06/27 00:15:14;;;;;;;7.90;5.75;;;;;;;23.35;62.22;100750.47;5037526;28;20045;-74
2022/06/27 00:17:41;;;;;;;9.40;6.15;;;;;;;23.48;61.92;100740.19;5039160;28;20091;-74
2022/06/27 00:20:08;;;;;;;10.77;5.97;;;;;;;23.36;62.16;100744.09;5044640;28;20048;-73
2022/06/27 00:22:34;;;;;;;7.03;6.30;;;;;;;23.50;62.04;100746.22;5033290;28;20103;-74
2022/06/27 00:25:01;;;;;;;6.38;5.78;;;;;;;23.32;61.91;100746.25;5023840;28;20127;-75
2022/06/27 00:27:27;;;;;;;8.98;6.28;;;;;;;22.96;63.52;100758.13;5025290;28;20075;-75
2022/06/27 00:29:55;;;;;;;7.43;6.43;;;;;;;23.01;63.86;100753.16;5025100;28;20079;-74
2022/06/27 00:32:23;;;;;;;6.80;6.10;;;;;;;23.25;62.41;100759.44;5024803;28;20737;-74
2022/06/27 00:34:49;;;;;;;7.15;6.20;;;;;;;23.42;61.99;100762.25;5025841;28;20124;-75
2022/06/27 00:37:16;;;;;;;8.52;6.47;;;;;;;22.97;63.45;100760.66;5026362;28;20053;-74
2022/06/27 00:39:42;;;;;;;8.82;6.30;;;;;;;23.13;63.16;100759.91;5023767;28;20045;-74
2022/06/27 00:42:09;;;;;;;8.82;6.60;;;;;;;23.02;63.67;100763.66;5025805;28;20041;-74
2022/06/27 00:44:37;;;;;;;9.02;6.60;;;;;;;23.06;63.64;100767.72;5024611;28;20095;-74
2022/06/27 00:47:06;;;;;;;9.60;6.80;;;;;;;22.90;63.86;100754.25;5025288;28;20500;-74
2022/06/27 00:49:34;;;;;;;8.63;6.43;;;;;;;22.83;64.35;100761.25;5025711;28;20080;-75
2022/06/27 00:52:03;;;;;;;9.75;6.80;;;;;;;22.68;65.45;100763.66;5025456;28;20049;-74
2022/06/27 00:54:30;;;;;;;7.35;6.65;;;;;;;22.54;65.76;100771.34;5023933;28;20080;-74
2022/06/27 00:56:57;;;;;;;7.15;6.45;;;;;;;22.98;64.03;100772.19;5026241;28;20049;-74
2022/06/27 00:59:24;;;;;;;8.25;6.60;;;;;;;23.02;63.95;100769.00;5025647;28;20391;-75
2022/06/27 01:01:51;;;;;;;7.78;6.63;;;;;;;23.05;63.63;100779.44;5024896;28;20076;-74
2022/06/27 01:04:18;;;;;;;11.60;7.18;;;;;;;22.85;64.33;100788.63;5026744;28;20071;-74
2022/06/27 01:06:45;;;;;;;7.10;6.35;;;;;;;22.49;65.80;100787.00;5026201;28;20042;-74
2022/06/27 01:09:11;;;;;;;7.80;6.75;;;;;;;22.88;64.26;100780.31;5025279;28;20088;-75
2022/06/27 01:11:38;;;;;;;8.32;6.18;;;;;;;23.13;63.21;100776.78;5025584;28;20061;-74
2022/06/27 01:14:04;;;;;;;7.28;6.57;;;;;;;23.19;63.27;100781.50;5025961;28;20053;-75
2022/06/27 01:16:31;;;;;;;7.88;6.47;;;;;;;23.15;63.69;100779.28;5023660;28;20037;-74
2022/06/27 01:18:57;;;;;;;7.65;6.53;;;;;;;22.85;64.38;100783.28;5024163;28;20045;-75
2022/06/27 01:21:26;;;;;;;13.55;7.35;;;;;;;22.98;64.10;100774.88;5024879;28;20095;-76
2022/06/27 01:23:54;;;;;;;8.68;6.70;;;;;;;23.08;63.16;100778.25;5023728;28;20099;-74
2022/06/27 01:26:21;;;;;;;8.85;7.07;;;;;;;23.06;63.75;100785.63;5024405;28;20041;-74
2022/06/27 01:28:48;;;;;;;8.38;6.95;;;;;;;23.04;63.36;100777.75;5026907;28;20041;-74
2022/06/27 01:31:16;;;;;;;9.07;7.47;;;;;;;23.10;63.78;100779.78;5027371;28;20129;-75
2022/06/27 01:33:42;;;;;;;8.43;7.10;;;;;;;22.92;64.07;100781.66;5021583;28;20049;-74
2022/06/27 01:38:56;;;;;;;8.50;7.60;;;;;;;23.00;63.90;100780.88;5022720;28;20183;-74
2022/06/27 01:41:23;;;;;;;8.02;7.15;;;;;;;22.95;64.10;100785.88;5024086;28;20084;-74
2022/06/27 01:43:49;;;;;;;8.05;7.25;;;;;;;23.32;62.08;100782.91;5023884;28;20038;-74
2022/06/27 01:46:17;;;;;;;10.13;7.53;;;;;;;23.09;63.46;100780.78;5023127;28;20046;-74
2022/06/27 01:48:43;;;;;;;8.60;7.43;;;;;;;22.97;64.04;100776.69;5024128;28;20435;-74
2022/06/27 01:51:10;;;;;;;10.93;7.78;;;;;;;22.70;64.85;100787.53;5041993;28;20484;-74
2022/06/27 01:53:38;;;;;;;15.88;7.30;;;;;;;22.55;65.28;100794.38;5043465;28;20056;-74
2022/06/27 01:56:06;;;;;;;11.23;7.43;;;;;;;22.74;64.80;100789.75;5041003;28;20426;-74
2022/06/27 01:58:34;;;;;;;9.88;7.20;;;;;;;23.00;63.93;100795.09;5028551;28;20455;-74
2022/06/27 02:01:01;;;;;;;10.93;7.38;;;;;;;22.92;64.47;100784.34;5023173;28;20069;-74
2022/06/27 02:03:27;;;;;;;8.55;7.05;;;;;;;22.65;65.25;100790.63;5023110;28;20420;-74
2022/06/27 02:05:54;;;;;;;12.65;7.85;;;;;;;22.71;65.35;100783.88;5022150;28;20046;-74
2022/06/27 02:08:21;;;;;;;8.15;7.07;;;;;;;22.75;65.12;100778.06;5022742;28;20045;-74
2022/06/27 02:10:48;;;;;;;7.95;7.25;;;;;;;22.60;65.77;100773.41;5023448;28;20045;-74
2022/06/27 02:13:16;;;;;;;10.65;7.95;;;;;;;22.68;65.67;100782.34;5023948;28;20127;-73
2022/06/27 02:16:05;;;;;;;8.57;7.20;;;;;;;22.86;64.95;100774.28;5023166;28;20081;-73
2022/06/27 02:18:33;;;;;;;9.70;7.57;;;;;;;22.93;64.86;100767.31;5003045;28;20050;-73
2022/06/27 02:20:59;;;;;;;10.93;7.28;;;;;;;22.97;64.89;100771.34;5006556;28;20046;-74
2022/06/27 02:23:26;;;;;;;8.27;7.47;;;;;;;22.98;64.46;100767.69;5007790;28;20252;-73
2022/06/27 02:25:54;;;;;;;9.85;8.40;;;;;;;22.95;64.79;100764.50;5020180;28;20498;-73
2022/06/27 02:28:24;;;;;;;8.15;7.35;;;;;;;22.79;65.56;100770.56;5034743;28;20481;-74
2022/06/27 02:30:50;;;;;;;8.48;7.30;;;;;;;22.75;65.71;100763.84;5019433;28;20045;-73
2022/06/27 02:33:17;;;;;;;11.85;7.90;;;;;;;22.85;65.53;100769.94;5024464;28;20197;-74
2022/06/27 02:35:44;;;;;;;11.40;8.32;;;;;;;22.90;65.17;100762.28;5026855;28;20620;-74
2022/06/27 02:38:12;;;;;;;10.20;7.65;;;;;;;22.97;64.53;100763.31;5047645;28;20098;-75
2022/06/27 02:40:40;;;;;;;9.50;7.90;;;;;;;22.88;65.39;100772.28;5045354;28;20041;-74
2022/06/27 02:43:08;;;;;;;8.65;7.68;;;;;;;22.77;65.04;100768.03;5027051;28;20103;-74
2022/06/27 02:45:37;;;;;;;10.20;7.90;;;;;;;22.70;65.49;100771.50;5027174;28;20045;-74
2022/06/27 02:48:03;;;;;;;8.75;7.80;;;;;;;22.68;65.12;100763.66;5046251;28;20041;-74
2022/06/27 02:50:33;;;;;;;9.18;8.18;;;;;;;22.60;65.71;100770.72;5046427;28;20053;-74
2022/06/27 02:53:06;;;;;;;10.50;7.78;;;;;;;22.56;65.62;100772.03;5046475;28;20045;-74
2022/06/27 02:55:38;;;;;;;10.18;7.90;;;;;;;22.58;65.78;100776.22;5047292;28;20045;-75
2022/06/27 02:58:10;;;;;;;9.57;8.02;;;;;;;22.63;65.26;100779.28;5031646;28;20041;-74
2022/06/27 03:00:41;;;;;;;9.48;8.32;;;;;;;22.53;65.49;100778.53;5032769;28;20057;-75
2022/06/27 03:03:11;;;;;;;8.88;8.00;;;;;;;22.60;65.35;100778.75;5026966;28;20050;-75
2022/06/27 03:05:54;;;;;;;10.10;8.82;;;;;;;22.52;66.09;100784.84;5026259;28;20476;-75
2022/06/27 03:08:21;;;;;;;9.98;8.43;;;;;;;22.54;65.68;100774.84;5024293;28;20425;-75
2022/06/27 03:10:47;;;;;;;11.10;8.75;;;;;;;22.42;65.76;100791.28;5026182;28;20108;-75
2022/06/27 03:13:14;;;;;;;10.52;8.70;;;;;;;22.46;65.43;100776.63;5027045;28;21902;-75
2022/06/27 03:15:42;;;;;;;15.55;8.90;;;;;;;22.57;65.39;100782.56;5025945;28;20486;-75
2022/06/27 03:18:09;;;;;;;13.73;8.93;;;;;;;22.43;65.17;100787.63;5045844;28;20604;-75
2022/06/27 03:20:36;;;;;;;9.57;8.57;;;;;;;22.37;65.62;100782.88;5046137;28;20126;-75
2022/06/27 03:23:02;;;;;;;10.73;9.57;;;;;;;22.28;66.54;100780.13;5045570;28;20045;-74
2022/06/27 03:25:28;;;;;;;12.50;9.38;;;;;;;22.04;67.47;100787.09;5047874;28;20099;-75
2022/06/27 03:27:55;;;;;;;10.90;8.95;;;;;;;22.05;67.45;100778.94;5031341;28;20045;-74
2022/06/27 03:30:21;;;;;;;16.35;9.18;;;;;;;21.82;68.39;100777.66;5024222;28;20041;-74
2022/06/27 03:32:49;;;;;;;11.05;9.10;;;;;;;21.79;68.76;100783.31;5026774;28;20046;-75
2022/06/27 03:35:15;;;;;;;10.95;8.85;;;;;;;21.67;69.43;100779.16;5024614;28;20041;-75
2022/06/27 03:37:42;;;;;;;10.80;9.70;;;;;;;21.74;69.42;100780.22;5024915;28;20045;-75
2022/06/27 03:40:10;;;;;;;12.65;9.55;;;;;;;21.70;69.64;100771.69;5026343;28;20045;-75
2022/06/27 03:42:36;;;;;;;11.18;8.75;;;;;;;21.79;68.88;100772.63;5023841;28;20050;-74
2022/06/27 03:45:03;;;;;;;12.50;8.98;;;;;;;21.59;70.19;100769.22;5025434;28;20038;-74
2022/06/27 03:47:29;;;;;;;11.00;8.70;;;;;;;21.91;68.91;100773.28;5039549;28;20064;-76
2022/06/27 03:50:02;;;;;;;10.75;8.75;;;;;;;21.86;69.14;100768.34;5043267;28;20056;-75
2022/06/27 03:52:28;;;;;;;15.88;10.13;;;;;;;22.06;67.06;100764.56;5041461;28;20134;-75
2022/06/27 03:54:55;;;;;;;10.27;8.85;;;;;;;21.90;68.10;100753.72;5024709;28;20049;-75
2022/06/27 03:57:21;;;;;;;12.15;9.18;;;;;;;22.21;68.03;100757.72;5026648;28;20158;-75
2022/06/27 03:59:48;;;;;;;10.95;8.90;;;;;;;22.01;68.82;100755.34;5017604;28;20068;-75
2022/06/27 04:02:16;;;;;;;14.82;9.02;;;;;;;22.09;68.60;100750.09;5024299;28;20050;-74
2022/06/27 04:04:42;;;;;;;11.70;9.32;;;;;;;22.20;68.05;100742.69;5026202;28;20073;-74
2022/06/27 04:07:10;;;;;;;10.02;8.25;;;;;;;22.32;67.35;100737.94;5026074;28;20145;-73
2022/06/27 04:09:36;;;;;;;11.85;9.23;;;;;;;22.53;66.52;100734.94;5026101;28;20449;-74
2022/06/27 04:12:03;;;;;;;12.10;8.60;;;;;;;22.35;66.92;100737.63;5026590;28;20203;-74
2022/06/27 04:14:29;;;;;;;8.85;8.05;;;;;;;22.61;65.71;100730.50;5035093;28;20061;-74
2022/06/27 04:16:56;;;;;;;10.85;8.50;;;;;;;22.55;65.56;100735.59;5025651;28;20041;-74
2022/06/27 04:19:22;;;;;;;11.27;8.35;;;;;;;22.78;64.60;100729.63;5022942;28;20575;-75
2022/06/27 04:21:48;;;;;;;8.95;8.05;;;;;;;22.93;63.35;100726.34;5024736;28;20104;-75
2022/06/27 04:24:16;;;;;;;9.75;7.97;;;;;;;22.98;63.16;100724.06;5026031;28;20099;-76
2022/06/27 04:26:43;;;;;;;10.45;8.07;;;;;;;23.25;62.25;100731.84;5024922;28;20053;-75
2022/06/27 04:29:09;;;;;;;11.57;8.60;;;;;;;23.26;61.67;100717.50;5019049;28;20468;-74
2022/06/27 04:31:36;;;;;;;12.02;8.27;;;;;;;23.66;61.50;100724.84;5026107;28;20464;-75
2022/06/27 04:34:04;;;;;;;10.32;8.07;;;;;;;23.95;59.94;100722.53;5023811;28;20323;-75
2022/06/27 04:36:31;;;;;;;8.73;7.90;;;;;;;23.78;60.06;100723.53;5024210;28;20049;-75
2022/06/27 04:38:57;;;;;;;10.00;8.27;;;;;;;23.73;60.51;100723.16;5026025;28;20449;-75
2022/06/27 04:41:26;;;;;;;10.15;8.38;;;;;;;23.98;60.23;100732.91;5023538;28;20095;-74
2022/06/27 04:43:53;;;;;;;10.05;8.75;;;;;;;24.15;58.74;100728.47;5023949;28;20498;-74
2022/06/27 04:46:19;;;;;;;10.18;8.95;;;;;;;24.22;59.37;100730.31;5023991;28;20464;-74
2022/06/27 04:48:46;;;;;;;10.60;8.55;;;;;;;24.37;58.70;100729.63;5020544;28;20571;-75
2022/06/27 04:51:13;;;;;;;11.15;8.70;;;;;;;23.90;60.27;100742.81;5023223;28;20049;-74
2022/06/27 04:53:40;;;;;;;9.52;8.60;;;;;;;23.87;60.98;100741.31;5024440;28;20049;-74
2022/06/27 04:56:09;;;;;;;11.27;8.60;;;;;;;24.42;59.19;100754.94;5023601;28;20099;-74
2022/06/27 04:58:37;;;;;;;10.60;9.25;;;;;;;24.96;57.71;100757.88;5024921;28;20049;-74
2022/06/27 05:01:03;;;;;;;10.60;9.23;;;;;;;25.15;57.11;100755.66;5024665;28;20042;-75
2022/06/27 05:03:30;;;;;;;13.75;9.35;;;;;;;24.80;58.19;100768.59;5020808;28;20509;-74
2022/06/27 05:05:56;;;;;;;11.52;9.23;;;;;;;25.14;57.59;100777.28;5024407;28;20041;-74
2022/06/27 05:08:22;;;;;;;12.07;8.90;;;;;;;25.54;56.58;100792.44;5024406;28;20103;-74
2022/06/27 05:10:49;;;;;;;11.93;9.10;;;;;;;25.89;55.22;100769.59;5021996;28;20073;-75
2022/06/27 05:13:15;;;;;;;9.52;8.63;;;;;;;25.78;55.44;100767.31;5024065;28;20041;-75
2022/06/27 05:15:43;;;;;;;9.48;8.23;;;;;;;26.02;54.85;100777.91;5023848;28;20049;-75
2022/06/27 05:18:09;;;;;;;9.35;8.18;;;;;;;26.06;55.07;100777.38;5032028;28;20049;-74
2022/06/27 05:20:35;;;;;;;9.35;8.40;;;;;;;26.01;54.09;100776.25;5043423;28;20041;-74
2022/06/27 05:23:02;;;;;;;10.35;8.40;;;;;;;25.78;54.68;100778.91;5044100;28;20148;-74
2022/06/27 05:25:29;;;;;;;9.68;7.80;;;;;;;26.07;54.53;100779.06;5043941;28;20546;-66
2022/06/27 05:27:56;;;;;;;8.98;7.95;;;;;;;26.17;53.65;100786.88;5035393;28;20128;-66
2022/06/27 05:30:22;;;;;;;9.02;7.57;;;;;;;26.08;53.86;100772.69;5024211;28;20636;-66
2022/06/27 05:32:50;;;;;;;9.00;7.47;;;;;;;25.79;55.36;100783.28;5026623;28;20076;-65
2022/06/27 05:35:16;;;;;;;7.90;7.10;;;;;;;26.20;53.78;100774.97;5031102;28;20462;-65
2022/06/27 05:37:44;;;;;;;9.57;7.43;;;;;;;26.90;52.30;100772.88;5023077;28;20053;-65
2022/06/27 05:40:10;;;;;;;8.10;7.20;;;;;;;26.91;52.39;100761.91;5022445;28;20046;-65
2022/06/27 05:42:37;;;;;;;8.88;7.25;;;;;;;26.77;52.00;100768.09;5023629;28;20509;-64
2022/06/27 05:45:04;;;;;;;11.90;7.10;;;;;;;27.22;52.23;100761.75;5024701;28;21901;-64
2022/06/27 05:47:31;;;;;;;11.30;6.93;;;;;;;27.74;50.18;100761.59;5022780;28;20049;-64
2022/06/27 05:50:00;;;;;;;9.77;7.25;;;;;;;27.94;49.46;100768.03;5027880;28;20055;-64
2022/06/27 05:52:28;;;;;;;7.93;7.13;;;;;;;28.01;48.86;100768.94;5028314;28;20481;-65
2022/06/27 05:54:54;;;;;;;7.70;7.00;;;;;;;28.27;49.14;100768.38;5025246;28;20613;-65
2022/06/27 05:57:24;;;;;;;9.80;7.63;;;;;;;28.61;47.95;100769.50;5027666;28;20049;-65
2022/06/27 05:59:51;;;;;;;10.57;7.55;;;;;;;28.85;48.34;100763.72;5020114;28;20049;-65
2022/06/27 06:02:17;;;;;;;9.07;7.82;;;;;;;29.24;47.87;100755.00;5026888;28;20049;-65
2022/06/27 06:04:44;;;;;;;10.40;7.47;;;;;;;29.39;47.15;100756.59;5027997;28;20055;-65
2022/06/27 06:07:12;;;;;;;9.20;7.38;;;;;;;29.71;47.36;100767.75;5028202;28;20060;-65
2022/06/27 06:09:39;;;;;;;9.00;7.15;;;;;;;30.19;46.11;100782.84;5027867;28;20179;-65
2022/06/27 06:12:09;;;;;;;15.82;7.45;;;;;;;30.32;45.33;100776.63;5027863;28;20103;-65
2022/06/27 06:14:35;;;;;;;16.50;7.90;;;;;;;30.87;43.32;100778.94;5040789;28;20053;-65
2022/06/27 06:17:02;;;;;;;12.57;7.38;;;;;;;30.38;45.65;100784.75;5038645;28;20106;-65
2022/06/27 06:19:29;;;;;;;11.25;7.28;;;;;;;31.02;43.25;100783.31;5033205;28;20068;-64
2022/06/27 06:21:56;;;;;;;7.90;7.05;;;;;;;31.05;42.68;100785.59;5035707;28;20470;-64
2022/06/27 06:24:24;;;;;;;12.23;7.28;;;;;;;31.65;42.13;100787.94;5046510;28;20048;-64
2022/06/27 06:26:52;;;;;;;10.32;7.43;;;;;;;32.09;40.22;100778.97;5045191;28;20047;-64
2022/06/27 06:29:21;;;;;;;13.70;8.13;;;;;;;31.85;40.89;100785.16;5028237;28;20051;-64
2022/06/27 06:31:48;;;;;;;12.65;8.15;;;;;;;31.79;40.34;100791.41;5032743;28;20458;-64
2022/06/27 06:34:15;;;;;;;10.90;7.93;;;;;;;31.61;41.16;100791.28;5036315;28;20055;-64
2022/06/27 06:36:43;;;;;;;11.45;7.78;;;;;;;31.89;42.37;100789.09;5025171;28;20199;-64
2022/06/27 06:39:10;;;;;;;10.13;7.05;;;;;;;32.03;41.66;100798.81;5027302;28;20098;-64
2022/06/27 06:41:39;;;;;;;13.60;7.35;;;;;;;32.03;42.99;100797.97;5041663;28;20159;-64
2022/06/27 06:44:06;;;;;;;12.48;7.32;;;;;;;32.22;41.65;100791.63;5034642;28;20053;-65
2022/06/27 06:46:34;;;;;;;7.75;6.70;;;;;;;32.57;40.54;100794.69;5041984;28;20107;-64
2022/06/27 06:49:05;;;;;;;7.93;6.10;;;;;;;32.70;41.85;100790.03;5043116;28;20049;-64
2022/06/27 06:51:34;;;;;;;9.50;6.63;;;;;;;32.55;40.70;100791.38;5043658;28;20057;-65
2022/06/27 06:54:00;;;;;;;21.67;7.80;;;;;;;32.46;40.09;100787.25;5037781;28;20049;-65
2022/06/27 06:56:28;;;;;;;10.32;7.45;;;;;;;32.38;40.75;100784.81;5027239;28;20045;-65
2022/06/27 06:58:56;;;;;;;10.05;7.13;;;;;;;32.18;43.03;100788.53;5024689;28;20058;-65
2022/06/27 07:01:22;;;;;;;10.98;8.05;;;;;;;31.94;42.06;100777.56;5029142;28;20434;-65
2022/06/27 07:03:51;;;;;;;10.45;7.70;;;;;;;31.99;42.62;100775.88;5034069;28;20041;-65
2022/06/27 07:06:21;;;;;;;9.90;7.80;;;;;;;32.14;43.87;100770.19;5041778;28;20052;-66
2022/06/27 07:08:48;;;;;;;9.20;7.85;;;;;;;32.64;42.44;100766.47;5045104;28;20591;-65
2022/06/27 07:11:15;;;;;;;10.13;8.23;;;;;;;32.81;42.29;100758.59;5046624;28;20125;-65
2022/06/27 07:13:41;;;;;;;10.50;7.78;;;;;;;33.03;40.00;100762.53;5025601;28;20103;-65
2022/06/27 07:16:09;;;;;;;10.68;7.30;;;;;;;33.31;40.43;100759.31;5025905;28;20489;-65
2022/06/27 07:18:37;;;;;;;17.75;8.15;;;;;;;33.25;40.98;100762.94;5037070;28;20529;-65
2022/06/27 07:21:04;;;;;;;11.93;8.85;;;;;;;32.89;41.09;100763.72;5046095;28;20064;-65
2022/06/27 07:23:31;;;;;;;9.30;8.40;;;;;;;32.72;41.08;100765.34;5025892;28;20050;-65
2022/06/27 07:25:58;;;;;;;12.38;8.48;;;;;;;32.67;42.24;100763.28;5027143;28;20370;-65
2022/06/27 07:28:26;;;;;;;16.98;9.00;;;;;;;32.23;42.26;100753.41;5030420;28;20452;-65
2022/06/27 07:30:53;;;;;;;11.23;8.95;;;;;;;32.03;42.61;100755.41;5032702;28;20069;-65
2022/06/27 07:33:21;;;;;;;14.52;8.20;;;;;;;31.90;43.58;100751.94;5027059;28;20045;-65
2022/06/27 07:35:47;;;;;;;10.25;8.43;;;;;;;31.94;42.42;100758.59;5031690;28;20099;-65
2022/06/27 07:38:14;;;;;;;10.80;8.60;;;;;;;31.56;42.58;100758.59;5045910;28;20048;-65
2022/06/27 07:40:42;;;;;;;11.07;9.30;;;;;;;31.77;42.47;100761.00;5037003;28;20049;-65
2022/06/27 07:43:09;;;;;;;14.02;8.88;;;;;;;31.50;44.32;100756.69;5026796;28;20048;-65
2022/06/27 07:45:38;;;;;;;11.63;9.13;;;;;;;31.43;44.57;100756.72;5034779;28;20077;-65
2022/06/27 07:48:05;;;;;;;13.60;9.45;;;;;;;31.21;44.51;100760.78;5025013;28;20049;-65
2022/06/27 07:50:40;;;;;;;11.50;8.60;;;;;;;30.73;45.56;100776.44;5044449;28;20084;-65
2022/06/27 07:53:12;;;;;;;14.27;9.63;;;;;;;30.46;45.98;100769.38;5025887;28;20045;-65
2022/06/27 07:55:39;;;;;;;18.25;9.35;;;;;;;30.75;45.92;100761.66;5024375;28;20115;-65
2022/06/27 07:58:07;;;;;;;11.75;8.85;;;;;;;30.99;46.18;100762.06;5025261;28;20133;-65
2022/06/27 08:00:34;;;;;;;13.85;9.13;;;;;;;31.13;46.19;100755.56;5026444;28;20280;-65
2022/06/27 08:03:36;;;;;;;12.15;8.68;;;;;;;31.12;45.77;100743.91;5038775;28;20048;-64
2022/06/27 08:05:48;;;;;;;10.70;8.68;;;;;;;31.29;44.18;100747.00;5042046;28;20132;-64
2022/06/27 08:08:14;;;;;;;12.52;9.00;;;;;;;31.23;45.26;100745.97;5025241;28;20041;-64
2022/06/27 08:10:41;;;;;;;16.17;9.15;;;;;;;31.68;45.24;100744.13;5025231;28;20099;-64
2022/06/27 08:13:08;;;;;;;13.88;8.15;;;;;;;31.96;44.88;100748.38;5030062;28;20049;-64
2022/06/27 08:15:34;;;;;;;11.80;8.40;;;;;;;32.05;44.77;100753.28;5024880;28;20155;-64
2022/06/27 08:18:01;;;;;;;11.50;8.30;;;;;;;31.97;44.09;100758.13;5029265;28;20505;-64
2022/06/27 08:20:28;;;;;;;12.48;8.40;;;;;;;32.33;42.76;100767.34;5024685;28;20041;-69
2022/06/27 08:22:55;;;;;;;15.23;8.60;;;;;;;32.50;41.38;100772.19;5023809;28;20134;-69
2022/06/27 08:25:22;;;;;;;11.65;8.23;;;;;;;32.71;42.57;100779.97;5031002;28;20123;-68
2022/06/27 08:27:48;;;;;;;10.98;8.60;;;;;;;33.43;39.61;100789.28;5028748;28;20096;-69
2022/06/27 08:30:15;;;;;;;9.18;8.10;;;;;;;33.28;38.92;100793.22;5027631;28;20042;-68
2022/06/27 08:32:42;;;;;;;9.02;8.23;;;;;;;32.90;39.35;100780.84;5016648;28;20049;-68
2022/06/27 08:35:09;;;;;;;10.80;8.65;;;;;;;32.99;38.52;100768.66;5015540;28;20095;-69
2022/06/27 08:37:36;;;;;;;12.43;8.80;;;;;;;32.55;40.85;100775.09;5023883;28;20723;-68
2022/06/27 08:40:06;;;;;;;13.43;8.23;;;;;;;32.14;42.38;100767.47;5025173;28;20041;-68
2022/06/27 08:42:33;;;;;;;12.00;8.65;;;;;;;31.77;41.88;100771.84;5026115;28;20390;-68
2022/06/27 08:45:01;;;;;;;14.88;8.25;;;;;;;32.03;43.53;100773.56;5023316;28;20073;-68
2022/06/27 08:47:30;;;;;;;12.52;8.10;;;;;;;32.21;41.53;100771.78;5024659;28;20068;-68
2022/06/27 08:49:57;;;;;;;14.10;8.88;;;;;;;32.16;40.74;100776.19;5024993;28;20577;-68
2022/06/27 08:52:24;;;;;;;9.60;8.60;;;;;;;32.51;39.77;100760.28;5025372;28;20056;-68
2022/06/27 08:54:51;;;;;;;11.13;8.05;;;;;;;32.54;41.31;100757.97;5025119;28;20099;-68
2022/06/27 08:57:19;;;;;;;15.32;7.93;;;;;;;32.42;42.08;100751.59;5024916;28;20069;-69
2022/06/27 08:59:46;;;;;;;9.93;7.85;;;;;;;32.55;42.36;100750.66;5023615;28;20157;-68
2022/06/27 09:02:17;;;;;;;10.10;8.30;;;;;;;32.60;42.03;100751.66;5023323;28;20049;-68
2022/06/27 09:04:58;;;;;;;8.45;7.65;;;;;;;33.70;40.92;100747.97;5023393;28;20132;-68
2022/06/27 09:07:45;;;;;;;14.68;7.95;;;;;;;34.35;38.49;100750.78;5024315;28;20095;-69
2022/06/27 09:10:30;;;;;;;7.82;6.90;;;;;;;34.39;37.10;100754.69;5023047;28;20055;-68
2022/06/27 09:13:00;;;;;;;11.60;8.85;;;;;;;34.17;37.46;100745.44;5025035;28;20482;-68
2022/06/27 09:15:43;;;;;;;12.53;8.10;;;;;;;34.29;37.77;100742.75;5023420;28;20049;-68
2022/06/27 09:18:10;;;;;;;10.27;7.00;;;;;;;34.45;37.94;100751.03;5044665;28;20456;-68
2022/06/27 09:20:52;;;;;;;14.48;7.88;;;;;;;34.31;36.52;100759.66;5042422;28;20409;-68
2022/06/27 09:23:40;;;;;;;9.93;7.93;;;;;;;34.18;37.04;100760.72;5042682;28;20048;-68
2022/06/27 09:26:13;;;;;;;14.65;8.32;;;;;;;33.76;37.18;100754.38;5044871;28;20075;-67
2022/06/27 09:28:44;;;;;;;9.93;7.65;;;;;;;33.54;37.18;100756.72;5031086;28;20374;-67
2022/06/27 09:31:13;;;;;;;9.57;8.15;;;;;;;33.12;39.05;100757.66;5028876;28;20091;-68
2022/06/27 09:33:41;;;;;;;13.45;7.75;;;;;;;33.78;38.42;100759.59;5029680;28;20056;-68
2022/06/27 09:36:13;;;;;;;9.98;7.65;;;;;;;33.79;39.91;100756.63;5047570;28;20049;-68
2022/06/27 09:38:41;;;;;;;11.57;7.90;;;;;;;34.08;38.59;100754.94;5041775;28;20143;-68
2022/06/27 09:41:11;;;;;;;10.25;7.75;;;;;;;34.35;38.43;100753.50;5051116;28;20124;-68
2022/06/27 09:43:44;;;;;;;8.63;7.57;;;;;;;34.38;37.44;100749.47;5036977;28;20049;-68
2022/06/27 09:46:13;;;;;;;9.95;7.70;;;;;;;34.84;35.85;100754.16;5029813;28;20044;-68
2022/06/27 09:48:42;;;;;;;9.43;6.95;;;;;;;35.10;37.19;100754.50;5041726;28;20513;-68
2022/06/27 09:51:10;;;;;;;8.65;7.32;;;;;;;35.42;36.96;100746.75;5029971;28;20611;-68
2022/06/27 09:53:40;;;;;;;9.27;7.18;;;;;;;35.86;34.62;100758.81;5030431;28;20053;-68
2022/06/27 09:56:10;;;;;;;13.10;8.02;;;;;;;36.03;34.02;100759.66;5035222;28;20064;-68
2022/06/27 09:58:38;;;;;;;7.60;6.80;;;;;;;36.67;32.29;100756.69;5026119;28;20140;-68
2022/06/27 10:01:05;;;;;;;8.18;7.03;;;;;;;36.00;34.03;100770.25;5030200;28;20529;-68
2022/06/27 10:03:33;;;;;;;13.63;6.88;;;;;;;36.17;32.26;100762.97;5044317;28;20049;-68
2022/06/27 10:06:00;;;;;;;7.47;6.75;;;;;;;36.37;32.63;100765.19;5050622;28;20110;-68
2022/06/27 10:08:27;;;;;;;7.57;6.88;;;;;;;35.21;33.99;100771.94;5051221;28;20497;-69
2022/06/27 10:11:09;;;;;;;8.75;6.88;;;;;;;34.74;37.83;100764.84;5047728;28;20047;-68
2022/06/27 10:13:36;;;;;;;;;;;;;;;35.76;34.20;100760.53;5015303;28;20064;-68
2022/06/27 10:16:10;;;;;;;8.20;7.22;;;;;;;36.27;34.30;100757.66;5031641;28;19944;-68
2022/06/27 10:18:54;;;;;;;11.57;7.22;;;;;;;36.62;31.65;100757.44;5030799;28;20041;-68
2022/06/27 10:21:28;;;;;;;8.15;6.88;;;;;;;37.07;34.02;100756.50;5032483;28;20081;-68
2022/06/27 10:24:32;;;;;;;9.00;6.57;;;;;;;37.51;32.04;100763.66;5044965;28;20469;-68
2022/06/27 10:26:59;;;;;;;9.77;7.50;;;;;;;36.68;32.20;100772.00;5030643;28;20133;-68
2022/06/27 10:29:47;;;;;;;11.70;7.50;;;;;;;36.42;32.78;100778.94;5029988;28;20045;-68
2022/06/27 10:32:54;;;;;;;10.95;7.47;;;;;;;36.40;33.73;100775.63;5034706;28;20099;-68
2022/06/27 10:35:24;;;;;;;9.73;7.68;;;;;;;36.57;35.80;100758.19;5049793;28;20110;-68
2022/06/27 10:37:50;;;;;;;16.27;7.75;;;;;;;36.33;32.47;100753.94;5031250;28;20059;-68
2022/06/27 10:40:44;;;;;;;9.68;7.75;;;;;;;35.82;34.72;100757.63;5026891;28;20045;-68
2022/06/27 10:43:42;;;;;;;15.45;7.93;;;;;;;36.30;34.92;100750.88;5027298;28;20110;-68
2022/06/27 10:46:43;;;;;;;8.88;7.97;;;;;;;35.59;34.04;100744.06;5025385;28;20568;-68
2022/06/27 10:49:24;;;;;;;8.70;7.90;;;;;;;34.73;35.18;100744.09;5026676;28;20476;-68
2022/06/27 10:51:52;;;;;;;8.50;7.30;;;;;;;35.17;34.22;100743.50;5030939;28;20479;-68
2022/06/27 10:54:19;;;;;;;8.05;7.15;;;;;;;35.37;34.96;100743.91;5040832;28;20456;-68
2022/06/27 10:56:47;;;;;;;16.33;7.38;;;;;;;35.34;34.04;100738.94;5026924;28;20395;-68
2022/06/27 10:59:59;;;;;;;7.95;7.25;;;;;;;34.93;35.50;100753.56;5025449;28;20049;-69
2022/06/27 11:02:33;;;;;;;12.05;7.70;;;;;;;34.48;35.71;100753.28;5006253;28;20278;-68
2022/06/27 11:05:00;;;;;;;8.45;7.03;;;;;;;35.02;37.20;100751.31;5016159;28;20084;-68
2022/06/27 11:07:27;;;;;;;11.45;7.32;;;;;;;35.48;35.69;100744.94;5027515;28;20045;-68
2022/06/27 11:09:53;;;;;;;11.52;6.85;;;;;;;36.06;34.75;100745.53;5043802;28;20564;-68
2022/06/27 11:12:23;;;;;;;8.60;6.40;;;;;;;35.97;32.87;100738.81;5045238;28;20079;-68
2022/06/27 11:14:50;;;;;;;10.82;7.07;;;;;;;35.67;33.42;100738.25;5047251;28;20065;-68
2022/06/27 11:17:37;;;;;;;10.27;6.88;;;;;;;33.57;36.11;100742.69;5044347;28;20049;-68
2022/06/27 11:20:21;;;;;;;14.07;6.93;;;;;;;34.13;36.09;100752.38;5026329;28;20048;-68
2022/06/27 11:22:52;;;;;;;6.88;6.28;;;;;;;34.40;35.64;100753.66;5026660;28;20048;-68
2022/06/27 11:25:20;;;;;;;12.13;6.47;;;;;;;34.04;35.70;100735.53;5026866;28;20046;-68
2022/06/27 11:27:50;;;;;;;7.22;6.53;;;;;;;34.15;36.29;100742.09;5025063;28;20494;-68
2022/06/27 11:33:22;;;;;;;6.93;6.22;;;;;;;35.45;33.79;100729.88;5030161;28;20052;-68
2022/06/27 11:35:48;;;;;;;6.80;6.05;;;;;;;35.68;33.40;100739.09;5026684;28;20053;-68